< < Back
Terminal Aerodrome Forecast


Current Version              Previous Versions:   1  2  3  4  5  6  7  8  9  

Terminal Aerodrome Forecast

005
FTUS42 KFFC 240500
TAFATL
TAF
KATL 240525Z 2406/2512 32004KT P6SM BKN250
     FM241600 32005KT P6SM SCT150
     FM250000 33005KT P6SM SKC=

Latest METAR

612
SAUS70 KWBC 241100 RRA
MTRATL
METAR KATL 241052Z 03004KT 10SM FEW140 BKN180 OVC250 11/07 A3005 RMK AO2
SLP173 T01060067


USA.gov is the U.S. government's official web portal to all federal, state and local government web resources and services.